Fort Myers, FL (33912)

8:19 AM EST on November 23, 2014 (GMT -0500)
Carriedale | Change Station
CLOSE
Current Station
Personal Weather Station
Location: Fort Myers, FL
Elevation: 16 ft
Nearby Weather Stations
Active Advisory: Coastal Hazard Statement

Elev 16 ft 26.52 °N, 81.82 °W | Updated 10 minutes ago

Partly Cloudy
Partly Cloudy
72.7 °F
Feels Like 72.7 °F
N
1.0
Wind Variable Wind from SSE
Gusts 8.0 mph

Today
High -- | Low -- °F
--% Chance of Precip.
Yesterday
High -- | Low -- °F
Precip. -- in
6:52 AM 5:34 PM
New Moon, 1% visible
Pressure 29.99 in
Visibility 9.0 miles
Clouds Few 700 ft
Few 1700 ft
Dew Point 72 °F
Humidity 97%
Rainfall 0.00 in
Snow Depth Not available.
UV 1 out of 12
Pollen 3.10 out of 12
Air Quality Not available.
Flu Activity Not available.
METAR KRSW 231253Z 15011KT 9SM FEW007 FEW017 22/22 A2999 RMK AO2 SLP154 T02220217

More Conditions Fewer Conditions

Pressure 29.99 in
Visibility 9.0 miles
Clouds Few 700 ft
Few 1700 ft
Dew Point 72 °F
Humidity 97%
Rainfall 0.00 in
Snow Depth Not available.
UV 1 out of 12
Pollen 3.10 out of 12
Air Quality Not available.
Flu Activity Not available.
METAR KRSW 231253Z 15011KT 9SM FEW007 FEW017 22/22 A2999 RMK AO2 SLP154 T02220217

More Conditions Fewer Conditions

10-Day Weather Forecast

Almanac

Astronomy

Nov. 23, 2014 Rise Set
Actual Time
Civil Twilight
Nautical Twilight
Astronomical Twilight
Moon
Length of Visible Light
Length of Day
Tomorrow will be .
, % of the Moon is Illuminated

Today's Extremes

State Highs State Lows

Community

WunderPhotos

Upload Photos

1,773,054 photos uploaded!

WunderBlogs® & News

Nearby

Air Quality

  Air Quality AQ Index Pollutant
Not available.

Snow Depth

Station Depth Elevation

Earthquake Activity

City Distance Mag. Time & Date
Minimum magnitude displayed is 2.5.

Coastal Water Temperatures

Place Temperature

Nearby Weather Stations